createdAt,value
2023-03-13T00:01:39.338Z,4.80
2023-03-13T00:04:06.803Z,4.15
2023-03-13T00:06:36.248Z,3.03
2023-03-13T00:09:05.143Z,3.78
2023-03-13T00:11:32.773Z,3.92
2023-03-13T00:14:01.015Z,3.47
2023-03-13T00:16:28.727Z,4.57
2023-03-13T00:18:56.886Z,3.58
2023-03-13T00:21:25.041Z,4.38
2023-03-13T00:23:53.844Z,4.13
2023-03-13T00:26:22.089Z,4.03
2023-03-13T00:28:50.704Z,3.33
2023-03-13T00:31:19.013Z,4.63
2023-03-13T00:33:47.295Z,3.92
2023-03-13T00:36:15.342Z,4.82
2023-03-13T00:38:43.050Z,4.00
2023-03-13T00:41:12.922Z,3.17
2023-03-13T00:43:41.100Z,3.63
2023-03-13T00:46:08.566Z,3.55
2023-03-13T00:48:35.897Z,3.30
2023-03-13T00:51:03.829Z,4.45
2023-03-13T00:53:31.284Z,4.03
2023-03-13T00:55:59.990Z,4.43
2023-03-13T00:58:29.377Z,5.05
2023-03-13T01:00:57.039Z,4.35
2023-03-13T01:03:26.089Z,3.65
2023-03-13T01:05:57.175Z,4.40
2023-03-13T01:08:24.492Z,3.30
2023-03-13T01:10:51.847Z,4.00
2023-03-13T01:13:19.148Z,3.30
2023-03-13T01:15:47.861Z,2.13
2023-03-13T01:18:15.414Z,2.53
2023-03-13T01:20:42.736Z,4.35
2023-03-13T01:23:10.034Z,3.85
2023-03-13T01:25:37.463Z,3.67
2023-03-13T01:28:05.036Z,4.22
2023-03-13T01:30:32.499Z,3.47
2023-03-13T01:33:02.125Z,3.47
2023-03-13T01:35:29.470Z,3.42
2023-03-13T01:37:56.847Z,3.42
2023-03-13T01:40:24.158Z,2.80
2023-03-13T01:42:53.008Z,4.03
2023-03-13T01:45:38.926Z,4.35
2023-03-13T01:48:07.642Z,4.18
2023-03-13T01:50:34.952Z,3.40
2023-03-13T01:53:02.252Z,2.88
2023-03-13T01:55:29.683Z,3.30
2023-03-13T01:57:57.042Z,2.97
2023-03-13T02:00:25.654Z,2.47
2023-03-13T02:02:55.577Z,2.50
2023-03-13T02:05:26.524Z,3.55
2023-03-13T02:07:56.150Z,2.70
2023-03-13T02:10:23.857Z,2.55
2023-03-13T02:12:51.859Z,2.47
2023-03-13T02:15:20.728Z,2.03
2023-03-13T02:17:49.572Z,2.80
2023-03-13T02:20:18.106Z,2.42
2023-03-13T02:22:48.500Z,2.50
2023-03-13T02:25:21.899Z,2.88
2023-03-13T02:27:51.840Z,2.42
2023-03-13T02:30:19.616Z,2.63
2023-03-13T02:32:47.181Z,2.08
2023-03-13T02:35:15.554Z,2.17
2023-03-13T02:37:43.923Z,2.33
2023-03-13T02:40:13.399Z,1.85
2023-03-13T02:42:42.159Z,1.98
2023-03-13T02:45:14.318Z,1.70
2023-03-13T02:47:41.802Z,1.85
2023-03-13T02:50:09.912Z,1.85
2023-03-13T02:52:39.143Z,1.83
2023-03-13T02:55:08.942Z,1.70
2023-03-13T02:57:36.259Z,1.30
2023-03-13T03:00:03.779Z,1.70
2023-03-13T03:02:32.390Z,1.70
2023-03-13T03:04:59.726Z,1.40
2023-03-13T03:07:27.034Z,1.48
2023-03-13T03:09:54.326Z,1.30
2023-03-13T03:12:21.639Z,1.45
2023-03-13T03:14:48.956Z,1.50
2023-03-13T03:17:16.243Z,1.00
2023-03-13T03:19:44.865Z,1.20
2023-03-13T03:22:12.239Z,1.00
2023-03-13T03:24:39.550Z,0.80
2023-03-13T03:27:07.027Z,1.10
2023-03-13T03:29:34.363Z,0.68
2023-03-13T03:32:01.742Z,0.55
2023-03-13T03:34:29.049Z,0.70
2023-03-13T03:37:00.349Z,0.70
2023-03-13T03:39:27.711Z,0.98
2023-03-13T03:41:55.041Z,1.00
2023-03-13T03:44:22.333Z,0.55
2023-03-13T03:46:49.682Z,0.50
2023-03-13T03:49:16.974Z,0.70
2023-03-13T03:51:44.366Z,0.70
2023-03-13T03:54:13.022Z,0.50
2023-03-13T03:56:40.342Z,0.80
2023-03-13T03:59:07.661Z,0.60
2023-03-13T04:01:34.980Z,1.00
2023-03-13T04:04:02.294Z,0.50
2023-03-13T04:06:29.672Z,0.77
2023-03-13T04:08:56.957Z,0.82
2023-03-13T04:11:25.655Z,0.93
2023-03-13T04:13:53.002Z,1.00
2023-03-13T04:16:20.359Z,0.75
2023-03-13T04:18:47.753Z,0.60
2023-03-13T04:21:15.058Z,0.70
2023-03-13T04:23:42.347Z,0.80
2023-03-13T04:26:09.641Z,0.88
2023-03-13T04:28:38.287Z,0.80
2023-03-13T04:31:05.946Z,0.60
2023-03-13T04:33:33.320Z,0.90
2023-03-13T04:36:00.647Z,0.60
2023-03-13T04:38:27.975Z,0.70
2023-03-13T04:40:55.292Z,0.63
2023-03-13T04:43:22.610Z,0.75
2023-03-13T04:45:54.449Z,0.70
2023-03-13T04:48:21.934Z,0.52
2023-03-13T04:50:49.593Z,0.85
2023-03-13T04:53:16.986Z,0.40
2023-03-13T04:55:44.614Z,0.52
2023-03-13T04:58:11.939Z,0.60
2023-03-13T05:00:40.525Z,0.80
2023-03-13T05:03:09.211Z,0.50
2023-03-13T05:05:36.744Z,0.77
2023-03-13T05:08:04.986Z,0.50
2023-03-13T05:10:32.419Z,0.80
2023-03-13T05:12:59.749Z,0.70
2023-03-13T05:15:27.065Z,0.90
2023-03-13T05:17:54.854Z,0.60
2023-03-13T05:20:23.618Z,0.70
2023-03-13T05:22:50.980Z,1.13
2023-03-13T05:25:18.457Z,0.90
2023-03-13T05:27:46.221Z,0.90
2023-03-13T05:30:14.006Z,0.85
2023-03-13T05:32:41.399Z,0.68
2023-03-13T05:35:09.221Z,0.90
2023-03-13T05:37:40.818Z,0.63
2023-03-13T05:40:09.634Z,0.82
2023-03-13T05:42:36.913Z,0.60
2023-03-13T05:45:04.498Z,0.60
2023-03-13T05:47:31.865Z,0.90
2023-03-13T05:49:59.176Z,0.70
2023-03-13T05:52:26.623Z,0.70
2023-03-13T05:54:55.299Z,0.88
2023-03-13T05:57:22.577Z,0.90
2023-03-13T05:59:49.955Z,0.80
2023-03-13T06:02:17.422Z,0.90
2023-03-13T06:04:44.822Z,1.17
2023-03-13T06:07:12.378Z,1.10
2023-03-13T06:09:41.040Z,1.10
2023-03-13T06:12:10.558Z,0.90
2023-03-13T06:14:38.664Z,1.25
2023-03-13T06:17:06.591Z,1.70
2023-03-13T06:19:33.896Z,1.10
2023-03-13T06:22:01.301Z,0.95
2023-03-13T06:24:28.713Z,1.15
2023-03-13T06:26:56.053Z,1.00
2023-03-13T06:29:24.883Z,0.88
2023-03-13T06:31:52.359Z,1.25
2023-03-13T06:34:19.827Z,1.13
2023-03-13T06:36:47.156Z,1.00
2023-03-13T06:39:14.457Z,0.82
2023-03-13T06:41:41.784Z,1.08
2023-03-13T06:44:09.101Z,1.20
2023-03-13T06:46:37.768Z,0.68
2023-03-13T06:49:05.875Z,1.00
2023-03-13T06:51:33.529Z,1.10
2023-03-13T06:54:02.363Z,1.05
2023-03-13T06:56:29.740Z,1.10
2023-03-13T06:59:00.146Z,1.30
2023-03-13T07:01:27.680Z,1.30
2023-03-13T07:03:56.421Z,1.90
2023-03-13T07:06:23.844Z,1.50
2023-03-13T07:08:51.207Z,1.70
2023-03-13T07:11:18.834Z,1.85
2023-03-13T07:13:46.126Z,1.63
2023-03-13T07:16:14.562Z,1.35
2023-03-13T07:18:44.409Z,1.90
2023-03-13T07:21:13.327Z,2.00
2023-03-13T07:23:42.564Z,2.10
2023-03-13T07:26:11.555Z,1.90
2023-03-13T07:28:40.243Z,1.60
2023-03-13T07:31:08.676Z,1.80
2023-03-13T07:33:36.198Z,1.90
2023-03-13T07:36:03.661Z,2.28
2023-03-13T07:38:32.596Z,2.20
2023-03-13T07:41:00.119Z,2.15
2023-03-13T07:43:27.838Z,1.98
2023-03-13T07:45:55.928Z,1.90
2023-03-13T07:48:23.929Z,2.30
2023-03-13T07:50:51.541Z,1.98
2023-03-13T07:53:21.117Z,2.55
2023-03-13T07:55:56.942Z,2.00
2023-03-13T07:58:24.682Z,2.30
2023-03-13T08:00:52.102Z,2.33
2023-03-13T08:03:19.625Z,2.42
2023-03-13T08:05:46.961Z,2.55
2023-03-13T08:08:14.459Z,2.10
2023-03-13T08:10:41.819Z,2.28
2023-03-13T08:13:10.468Z,2.00
2023-03-13T08:15:37.794Z,2.60
2023-03-13T08:18:05.337Z,2.33
2023-03-13T08:20:32.741Z,2.55
2023-03-13T08:23:00.725Z,2.30
2023-03-13T08:25:28.057Z,2.70
2023-03-13T08:27:55.746Z,1.98
2023-03-13T08:30:24.410Z,2.55
2023-03-13T08:32:51.741Z,2.08
2023-03-13T08:35:19.090Z,2.60
2023-03-13T08:37:46.407Z,3.30
2023-03-13T08:40:13.938Z,2.22
2023-03-13T08:42:41.193Z,2.63
2023-03-13T08:45:09.109Z,1.95
2023-03-13T08:47:37.764Z,3.13
2023-03-13T08:50:05.322Z,1.90
2023-03-13T08:52:32.599Z,2.20
2023-03-13T08:55:00.261Z,2.17
2023-03-13T08:57:27.664Z,2.38
2023-03-13T08:59:54.954Z,2.20
2023-03-13T09:02:22.293Z,2.30
2023-03-13T09:04:51.023Z,2.20
2023-03-13T09:07:18.363Z,2.90
2023-03-13T09:09:45.668Z,2.50
2023-03-13T09:12:24.765Z,1.95
2023-03-13T09:14:57.160Z,2.10
2023-03-13T09:17:24.477Z,2.00
2023-03-13T09:20:00.284Z,2.00
2023-03-13T09:22:28.378Z,1.63
2023-03-13T09:24:55.735Z,1.70
2023-03-13T09:27:23.167Z,1.73
2023-03-13T09:29:50.467Z,1.67
2023-03-13T09:32:20.271Z,1.33
2023-03-13T09:34:47.681Z,1.55
2023-03-13T09:37:16.299Z,1.70
2023-03-13T09:39:43.688Z,1.48
2023-03-13T09:42:14.440Z,1.30
2023-03-13T09:44:45.392Z,1.48
2023-03-13T09:47:15.333Z,2.50
2023-03-13T09:49:45.371Z,1.50
2023-03-13T09:52:16.776Z,1.40
2023-03-13T09:54:47.287Z,1.38
2023-03-13T09:57:17.455Z,1.50
2023-03-13T09:59:48.123Z,1.35
2023-03-13T10:02:20.377Z,1.85
2023-03-13T10:04:50.687Z,1.38
2023-03-13T10:07:20.822Z,1.50
2023-03-13T10:09:48.210Z,1.35
2023-03-13T10:12:19.624Z,1.38
2023-03-13T10:14:50.713Z,1.20
2023-03-13T10:17:23.367Z,1.75
2023-03-13T10:19:55.632Z,1.45
2023-03-13T10:22:27.042Z,1.40
2023-03-13T10:24:57.109Z,1.27
2023-03-13T10:27:24.535Z,1.15
2023-03-13T10:29:51.847Z,1.08
2023-03-13T10:32:20.612Z,1.02
2023-03-13T10:34:53.008Z,0.95
2023-03-13T10:37:26.182Z,1.08
2023-03-13T10:39:53.547Z,1.00
2023-03-13T10:42:28.623Z,1.17
2023-03-13T10:45:00.074Z,1.17
2023-03-13T10:47:28.036Z,0.80
2023-03-13T10:49:57.400Z,0.93
2023-03-13T10:52:36.277Z,1.00
2023-03-13T10:55:05.585Z,0.80
2023-03-13T10:57:33.376Z,0.88
2023-03-13T11:00:06.044Z,0.70
2023-03-13T11:02:35.310Z,0.90
2023-03-13T11:05:03.692Z,0.80
2023-03-13T11:07:33.098Z,0.80
2023-03-13T11:10:02.929Z,0.70
2023-03-13T11:12:34.066Z,0.70
2023-03-13T11:15:02.118Z,0.65
2023-03-13T11:17:38.235Z,0.60
2023-03-13T11:20:09.277Z,0.80
2023-03-13T11:22:45.516Z,0.82
2023-03-13T11:25:20.462Z,0.70
2023-03-13T11:30:22.656Z,0.90
2023-03-13T11:32:52.287Z,0.70
2023-03-13T11:35:33.532Z,0.80
2023-03-13T11:38:01.777Z,0.60
2023-03-13T11:40:32.706Z,0.60
2023-03-13T11:43:24.233Z,0.50
2023-03-13T11:46:04.767Z,0.68
2023-03-13T11:48:46.403Z,0.60
2023-03-13T11:51:20.214Z,0.50
2023-03-13T11:53:57.073Z,0.50
2023-03-13T11:56:28.338Z,0.50
2023-03-13T11:59:03.642Z,0.40
2023-03-13T12:01:34.532Z,0.43
2023-03-13T12:04:05.785Z,0.68
2023-03-13T12:06:34.894Z,0.47
2023-03-13T12:09:07.607Z,0.60
2023-03-13T12:11:43.482Z,0.50
2023-03-13T12:14:12.531Z,0.60
2023-03-13T12:16:42.086Z,0.73
2023-03-13T12:19:11.800Z,0.45
2023-03-13T12:21:43.165Z,0.43
2023-03-13T12:24:15.882Z,0.60
2023-03-13T12:26:47.321Z,0.75
2023-03-13T12:29:16.942Z,0.70
2023-03-13T12:31:46.213Z,0.60
2023-03-13T12:34:15.748Z,0.60
2023-03-13T12:36:45.191Z,0.80
2023-03-13T12:39:18.609Z,0.95
2023-03-13T12:41:49.268Z,0.68
2023-03-13T12:44:18.560Z,0.70
2023-03-13T12:46:47.448Z,0.80
2023-03-13T12:49:20.944Z,0.70
2023-03-13T12:51:57.355Z,0.70
2023-03-13T12:54:45.406Z,0.80
2023-03-13T12:57:30.424Z,0.80
2023-03-13T13:00:05.464Z,0.85
2023-03-13T13:02:33.133Z,0.73
2023-03-13T13:05:02.065Z,0.68
2023-03-13T13:07:30.463Z,0.88
2023-03-13T13:10:05.736Z,0.73
2023-03-13T13:12:33.079Z,0.80
2023-03-13T13:15:11.963Z,0.80
2023-03-13T13:17:51.463Z,0.90
2023-03-13T13:20:37.787Z,0.60
2023-03-13T13:23:19.980Z,0.77
2023-03-13T13:25:47.825Z,0.80
2023-03-13T13:28:33.830Z,0.90
2023-03-13T13:31:03.006Z,0.90
2023-03-13T13:33:40.883Z,0.90
2023-03-13T13:36:29.475Z,0.70
2023-03-13T13:38:57.292Z,1.10
2023-03-13T13:41:34.976Z,0.93
2023-03-13T13:44:21.290Z,1.00
2023-03-13T13:46:50.173Z,0.90
2023-03-13T13:49:18.873Z,0.80
2023-03-13T13:52:01.112Z,1.20
2023-03-13T13:54:34.982Z,0.95
2023-03-13T13:57:03.387Z,0.93
2023-03-13T13:59:32.625Z,0.90
2023-03-13T14:02:13.948Z,0.80
2023-03-13T14:04:43.062Z,0.80
2023-03-13T14:07:13.260Z,0.93
2023-03-13T14:09:44.929Z,0.98
2023-03-13T14:12:26.040Z,0.50
2023-03-13T14:15:06.872Z,0.70
2023-03-13T14:17:40.521Z,0.80
2023-03-13T14:20:17.101Z,0.73
2023-03-13T14:22:48.064Z,1.02
2023-03-13T14:25:15.492Z,0.90
2023-03-13T14:27:46.086Z,0.65
2023-03-13T14:30:15.142Z,0.60
2023-03-13T14:32:44.111Z,0.60
2023-03-13T14:35:12.578Z,0.80
2023-03-13T14:37:42.810Z,1.00
2023-03-13T14:40:11.247Z,0.70
2023-03-13T14:42:39.806Z,0.70
2023-03-13T14:45:13.722Z,0.50
2023-03-13T14:47:41.451Z,0.70
2023-03-13T14:50:13.316Z,0.60
2023-03-13T14:52:45.291Z,0.60
2023-03-13T14:55:26.957Z,0.90
2023-03-13T14:57:58.083Z,0.80
2023-03-13T15:00:31.955Z,0.50
2023-03-13T15:03:19.961Z,0.60
2023-03-13T15:05:49.662Z,0.63
2023-03-13T15:08:18.561Z,0.65
2023-03-13T15:10:46.364Z,0.65
2023-03-13T15:13:17.510Z,0.63
2023-03-13T15:15:45.095Z,0.70
2023-03-13T15:18:18.322Z,0.85
2023-03-13T15:20:51.246Z,0.70
2023-03-13T15:23:18.901Z,0.90
2023-03-13T15:25:46.446Z,0.70
2023-03-13T15:28:15.366Z,0.90
2023-03-13T15:30:43.038Z,0.50
2023-03-13T15:33:13.448Z,0.60
2023-03-13T15:35:40.778Z,0.85
2023-03-13T15:38:11.879Z,0.77
2023-03-13T15:40:39.188Z,0.93
2023-03-13T15:43:06.731Z,0.88
2023-03-13T15:45:34.092Z,1.00
2023-03-13T15:48:01.605Z,1.00
2023-03-13T15:50:30.884Z,0.82
2023-03-13T15:52:58.740Z,1.00
2023-03-13T15:55:28.675Z,0.63
2023-03-13T15:57:55.957Z,0.95
2023-03-13T16:00:27.144Z,1.00
2023-03-13T16:02:54.499Z,1.10
2023-03-13T16:05:21.860Z,0.90
2023-03-13T16:07:49.152Z,1.00
2023-03-13T16:10:17.862Z,1.00
2023-03-13T16:12:46.560Z,1.20
2023-03-13T16:15:13.944Z,1.05
2023-03-13T16:17:41.299Z,0.90
2023-03-13T16:20:13.410Z,1.40
2023-03-13T16:22:40.731Z,1.05
2023-03-13T16:25:08.613Z,1.55
2023-03-13T16:27:35.944Z,2.25
2023-03-13T16:30:06.948Z,1.50
2023-03-13T16:32:34.292Z,1.40
2023-03-13T16:35:02.154Z,1.30
2023-03-13T16:37:29.517Z,1.52
2023-03-13T16:39:56.827Z,1.33
2023-03-13T16:42:24.141Z,1.50
2023-03-13T16:44:51.659Z,1.30
2023-03-13T16:47:23.162Z,1.70
2023-03-13T16:49:50.655Z,1.80
2023-03-13T16:52:18.283Z,1.88
2023-03-13T16:54:45.917Z,1.70
2023-03-13T16:57:14.265Z,1.60
2023-03-13T16:59:41.618Z,1.48
2023-03-13T17:02:14.492Z,1.70
2023-03-13T17:07:30.775Z,2.00
2023-03-13T17:09:58.069Z,1.40
2023-03-13T17:12:25.445Z,1.90
2023-03-13T17:14:52.775Z,1.88
2023-03-13T17:17:22.076Z,1.40
2023-03-13T17:19:50.796Z,1.70
2023-03-13T17:22:18.667Z,1.55
2023-03-13T17:24:46.069Z,2.03
2023-03-13T17:27:14.092Z,1.75
2023-03-13T17:29:41.464Z,2.10
2023-03-13T17:32:10.258Z,1.80
2023-03-13T17:34:37.673Z,2.03
2023-03-13T17:37:12.577Z,1.85
2023-03-13T17:42:07.205Z,1.73
2023-03-13T17:44:34.562Z,1.77
2023-03-13T17:47:01.950Z,1.52
2023-03-13T17:49:30.879Z,2.15
2023-03-13T17:51:58.206Z,1.90
2023-03-13T17:54:26.831Z,1.98
2023-03-13T17:56:56.289Z,1.70
2023-03-13T17:59:23.597Z,1.70
2023-03-13T18:01:50.957Z,2.40
2023-03-13T18:04:18.323Z,2.05
2023-03-13T18:06:46.608Z,1.85
2023-03-13T18:09:16.437Z,1.80
2023-03-13T18:11:45.309Z,1.95
2023-03-13T18:14:12.640Z,2.22
2023-03-13T18:16:43.099Z,1.67
2023-03-13T18:19:15.068Z,1.80
2023-03-13T18:21:43.982Z,1.42
2023-03-13T18:24:11.858Z,1.50
2023-03-13T18:26:39.731Z,2.25
2023-03-13T18:29:12.927Z,1.90
2023-03-13T18:31:42.496Z,2.40
2023-03-13T18:34:10.479Z,2.22
2023-03-13T18:36:37.787Z,2.30
2023-03-13T18:39:06.150Z,2.22
2023-03-13T18:41:34.157Z,1.60
2023-03-13T18:44:02.479Z,2.13
2023-03-13T18:46:31.994Z,1.85
2023-03-13T18:49:00.217Z,2.83
2023-03-13T18:51:28.334Z,2.30
2023-03-13T18:53:56.062Z,1.88
2023-03-13T18:56:24.620Z,2.08
2023-03-13T18:58:52.686Z,1.98
2023-03-13T19:01:21.538Z,1.73
2023-03-13T19:03:50.380Z,2.10
2023-03-13T19:06:22.034Z,2.10
2023-03-13T19:08:50.285Z,1.92
2023-03-13T19:11:18.489Z,1.73
2023-03-13T19:13:45.901Z,1.75
2023-03-13T19:16:17.194Z,1.90
2023-03-13T19:18:44.712Z,1.98
2023-03-13T19:21:16.659Z,1.50
2023-03-13T19:23:44.150Z,1.67
2023-03-13T19:26:14.416Z,1.83
2023-03-13T19:28:42.359Z,1.70
2023-03-13T19:31:09.675Z,1.90
2023-03-13T19:33:37.029Z,1.98
2023-03-13T19:36:04.600Z,1.70
2023-03-13T19:38:33.315Z,1.75
2023-03-13T19:41:00.942Z,2.30
2023-03-13T19:43:28.231Z,1.67
2023-03-13T19:45:55.544Z,2.20
2023-03-13T19:48:23.051Z,1.77
2023-03-13T19:50:50.349Z,2.20
2023-03-13T19:53:17.683Z,2.17
2023-03-13T19:55:46.347Z,2.20
2023-03-13T19:58:13.712Z,2.17
2023-03-13T20:00:41.120Z,1.63
2023-03-13T20:03:08.419Z,1.88
2023-03-13T20:05:36.216Z,2.13
2023-03-13T20:08:03.520Z,1.92
2023-03-13T20:10:30.871Z,2.35
2023-03-13T20:12:59.506Z,1.92
2023-03-13T20:15:26.973Z,2.10
2023-03-13T20:17:54.320Z,1.88
2023-03-13T20:20:21.668Z,1.98
2023-03-13T20:22:48.977Z,1.95
2023-03-13T20:25:16.821Z,1.80
2023-03-13T20:27:44.152Z,2.03
2023-03-13T20:30:13.272Z,2.08
2023-03-13T20:32:56.657Z,1.95
2023-03-13T20:35:26.483Z,1.88
2023-03-13T20:37:54.517Z,1.98
2023-03-13T20:40:21.854Z,1.70
2023-03-13T20:42:49.156Z,2.10
2023-03-13T20:45:17.797Z,2.25
2023-03-13T20:47:45.158Z,1.92
2023-03-13T20:50:12.642Z,1.90
2023-03-13T20:52:39.951Z,2.10
2023-03-13T20:55:07.522Z,1.73
2023-03-13T20:57:36.352Z,3.05
2023-03-13T21:00:05.286Z,2.00
2023-03-13T21:02:34.001Z,2.50
2023-03-13T21:05:01.392Z,2.05
2023-03-13T21:07:28.768Z,1.98
2023-03-13T21:09:56.050Z,2.35
2023-03-13T21:12:23.371Z,2.00
2023-03-13T21:14:53.376Z,2.17
2023-03-13T21:17:20.790Z,2.30
2023-03-13T21:19:49.823Z,2.25
2023-03-13T21:22:17.166Z,2.42
2023-03-13T21:24:44.573Z,1.92
2023-03-13T21:27:14.077Z,2.25
2023-03-13T21:29:43.797Z,1.80
2023-03-13T21:32:11.552Z,2.10
2023-03-13T21:34:38.908Z,1.90
2023-03-13T21:37:07.546Z,2.00
2023-03-13T21:39:34.966Z,1.95
2023-03-13T21:42:02.275Z,1.75
2023-03-13T21:44:29.586Z,2.42
2023-03-13T21:46:56.913Z,1.85
2023-03-13T21:49:24.362Z,2.03
2023-03-13T21:51:51.692Z,1.73
2023-03-13T21:54:20.353Z,2.05
2023-03-13T21:56:47.693Z,2.15
2023-03-13T21:59:15.027Z,2.97
2023-03-13T22:01:43.459Z,1.85
2023-03-13T22:04:11.147Z,1.95
2023-03-13T22:06:38.459Z,2.13
2023-03-13T22:09:06.431Z,2.20
2023-03-13T22:11:35.087Z,2.30
2023-03-13T22:14:02.366Z,2.38
2023-03-13T22:16:29.731Z,1.52
2023-03-13T22:18:57.026Z,1.75
2023-03-13T22:21:24.545Z,2.55
2023-03-13T22:23:51.906Z,2.17
2023-03-13T22:26:19.241Z,2.13
2023-03-13T22:28:47.948Z,1.83
2023-03-13T22:31:15.263Z,1.73
2023-03-13T22:33:42.585Z,1.90
2023-03-13T22:36:10.651Z,1.85
2023-03-13T22:38:39.791Z,1.50
2023-03-13T22:41:08.118Z,1.95
2023-03-13T22:43:35.603Z,2.10
2023-03-13T22:46:04.641Z,1.90
2023-03-13T22:48:32.448Z,2.03
2023-03-13T22:51:00.685Z,1.55
2023-03-13T22:53:28.042Z,1.70
2023-03-13T22:55:55.377Z,1.58
2023-03-13T22:58:22.850Z,1.80
2023-03-13T23:00:50.233Z,2.20
2023-03-13T23:03:19.185Z,1.75
2023-03-13T23:05:48.477Z,1.80
2023-03-13T23:08:16.486Z,1.90
2023-03-13T23:10:44.311Z,1.63
2023-03-13T23:13:11.981Z,2.28
2023-03-13T23:15:55.418Z,1.90
2023-03-13T23:18:24.634Z,1.60
2023-03-13T23:20:52.028Z,1.58
2023-03-13T23:23:19.389Z,1.60
2023-03-13T23:25:46.732Z,1.63
2023-03-13T23:28:14.164Z,1.58
2023-03-13T23:30:41.442Z,1.80
2023-03-13T23:33:08.840Z,2.00
2023-03-13T23:35:38.647Z,1.92
2023-03-13T23:38:05.998Z,1.90
2023-03-13T23:40:33.533Z,1.90
2023-03-13T23:43:00.836Z,1.75
2023-03-13T23:45:28.118Z,1.88
2023-03-13T23:47:55.845Z,1.75
2023-03-13T23:50:23.700Z,2.10
2023-03-13T23:52:52.329Z,1.70
2023-03-13T23:55:19.722Z,2.00
2023-03-13T23:57:49.032Z,1.77
